Time;durP1;ratioP1;P1;durP2;ratioP2;P2;SDS_P1;SDS_P2;PMS_P1;PMS_P2;Temp;Humidity;BMP_temperature;BMP_pressure;BME280_temperature;BME280_humidity;BME280_pressure;Samples;Min_cycle;Max_cycle;Signal;HPM_P1;HPM_P2
2021/01/14 00:01:53;;;;;;;16.80;14.63;;;2.30;99.90;;;2.99;100.00;97555.13;5230020;28;20301;-79
2021/01/14 00:04:26;;;;;;;16.10;14.60;;;2.30;99.90;;;3.01;100.00;97553.63;5231689;28;20241;-79
2021/01/14 00:06:59;;;;;;;15.43;13.77;;;2.30;99.90;;;3.02;100.00;97540.22;5232234;28;20204;-79
2021/01/14 00:09:31;;;;;;;15.80;14.30;;;2.40;99.90;;;3.02;100.00;97550.31;5230633;28;20319;-79
2021/01/14 00:12:03;;;;;;;14.37;13.07;;;2.40;99.90;;;3.07;100.00;97546.53;5238110;28;20199;-80
2021/01/14 00:14:35;;;;;;;14.20;12.90;;;2.40;99.90;;;3.13;100.00;97554.59;5244790;28;20196;-78
2021/01/14 00:17:07;;;;;;;12.27;11.10;;;2.40;99.90;;;3.08;100.00;97576.06;5234200;28;20285;-79
2021/01/14 00:19:40;;;;;;;13.00;11.70;;;2.40;99.90;;;3.07;100.00;97593.63;5250146;28;20196;-78
2021/01/14 00:22:12;;;;;;;12.57;11.37;;;2.40;99.90;;;3.11;100.00;97586.41;5229628;28;20377;-78
2021/01/14 00:24:45;;;;;;;11.13;10.13;;;2.40;99.90;;;3.22;100.00;97593.97;5230856;28;20211;-79
2021/01/14 00:27:17;;;;;;;10.77;9.67;;;2.40;99.90;;;3.19;100.00;97597.13;5230755;28;20181;-79
2021/01/14 00:29:49;;;;;;;9.73;8.90;;;2.40;99.90;;;3.14;100.00;97591.69;5236135;28;20671;-79
2021/01/14 00:32:21;;;;;;;10.27;9.37;;;2.40;99.90;;;3.12;100.00;97590.72;5250361;28;20226;-80
2021/01/14 00:34:54;;;;;;;8.87;8.17;;;2.40;99.90;;;3.09;100.00;97575.31;5237951;28;20196;-79
2021/01/14 00:40:17;;;;;;;9.53;8.57;;;2.40;99.90;;;3.13;100.00;97605.09;5248337;28;20204;-79
2021/01/14 00:42:57;;;;;;;9.43;8.60;;;2.40;99.90;;;3.13;100.00;97620.25;5245350;28;20213;-80
2021/01/14 00:45:32;;;;;;;8.90;8.17;;;2.40;99.90;;;3.12;100.00;97615.97;5231402;28;20209;-79
2021/01/14 00:48:05;;;;;;;9.73;8.93;;;2.30;99.90;;;3.15;100.00;97616.22;5236304;28;20239;-81
2021/01/14 00:50:38;;;;;;;8.80;7.90;;;2.40;99.90;;;3.12;100.00;97600.81;5250853;28;20197;-79
2021/01/14 00:53:10;;;;;;;9.30;8.50;;;2.40;99.90;;;3.14;100.00;97595.88;5249110;28;20303;-79
2021/01/14 00:55:42;;;;;;;9.97;8.97;;;2.30;99.90;;;3.07;100.00;97597.03;5250644;28;20201;-77
2021/01/14 00:58:14;;;;;;;9.33;8.53;;;2.30;99.90;;;3.08;100.00;97592.84;5242916;28;20189;-79
2021/01/14 01:00:46;;;;;;;8.93;8.13;;;2.30;99.90;;;3.09;100.00;97587.03;5230842;28;20654;-79
2021/01/14 01:03:18;;;;;;;8.87;8.07;;;2.30;99.90;;;3.04;100.00;97609.41;5230237;28;20217;-79
2021/01/14 01:05:50;;;;;;;8.73;7.93;;;2.30;99.90;;;3.10;99.76;97611.53;5230139;28;20203;-78
2021/01/14 01:08:22;;;;;;;8.50;7.80;;;2.30;99.90;;;3.07;100.00;97624.78;5237345;28;20248;-78
2021/01/14 01:10:55;;;;;;;7.87;7.17;;;2.30;99.90;;;3.00;100.00;97632.59;5229560;28;20208;-78
2021/01/14 01:13:27;;;;;;;8.53;7.73;;;2.30;99.90;;;3.02;100.00;97638.69;5238353;28;20218;-78
2021/01/14 01:15:59;;;;;;;8.87;7.97;;;2.30;99.90;;;3.04;100.00;97629.59;5247754;28;20551;-76
2021/01/14 01:18:30;;;;;;;8.90;8.00;;;2.30;99.90;;;3.05;100.00;97612.81;5248093;28;20205;-79
2021/01/14 01:21:06;;;;;;;9.13;8.33;;;2.30;99.90;;;3.06;100.00;97623.03;5232605;28;20264;-79
2021/01/14 01:23:38;;;;;;;9.23;8.33;;;2.20;99.90;;;3.05;100.00;97633.88;5229126;28;20250;-79
2021/01/14 01:26:15;;;;;;;9.93;9.03;;;2.20;99.90;;;3.11;100.00;97631.84;5228722;28;20212;-79
2021/01/14 01:28:48;;;;;;;9.93;9.03;;;2.30;99.90;;;3.13;100.00;97635.38;5237502;28;20231;-78
2021/01/14 01:31:20;;;;;;;10.10;9.10;;;2.30;99.90;;;3.10;100.00;97644.38;5249573;28;20204;-78
2021/01/14 01:33:52;;;;;;;10.10;9.13;;;2.20;99.90;;;3.05;100.00;97631.34;5238251;28;20714;-79
2021/01/14 01:36:25;;;;;;;11.13;10.03;;;2.30;99.90;;;3.06;100.00;97630.63;5247901;28;20227;-76
2021/01/14 01:38:57;;;;;;;10.33;9.43;;;2.30;99.90;;;3.06;100.00;97633.13;5228615;28;20196;-79
2021/01/14 01:41:29;;;;;;;9.93;9.13;;;2.20;99.90;;;3.08;100.00;97629.06;5246339;28;20226;-78
2021/01/14 01:44:01;;;;;;;10.03;9.13;;;2.30;99.90;;;3.07;100.00;97632.38;5245690;28;20216;-79
2021/01/14 01:46:33;;;;;;;10.43;9.53;;;2.30;99.90;;;3.07;100.00;97622.28;5249248;28;20593;-79
2021/01/14 01:49:05;;;;;;;9.27;8.43;;;2.30;99.90;;;3.09;100.00;97627.44;5238738;28;20602;-79
2021/01/14 01:51:42;;;;;;;10.03;9.10;;;2.30;99.90;;;3.09;100.00;97637.53;5227373;28;20205;-78
2021/01/14 01:54:14;;;;;;;10.17;9.27;;;2.30;99.90;;;3.05;100.00;97646.50;5237461;28;20230;-79
2021/01/14 01:56:47;;;;;;;8.70;7.80;;;2.30;99.90;;;3.07;100.00;97639.94;5247185;28;20261;-79
2021/01/14 01:59:19;;;;;;;9.50;8.67;;;2.30;99.90;;;3.09;100.00;97633.38;5246824;28;20200;-79
2021/01/14 02:01:51;;;;;;;9.23;8.43;;;2.30;99.90;;;3.03;100.00;97630.34;5247653;28;20202;-78
2021/01/14 02:04:23;;;;;;;9.43;8.60;;;2.20;99.90;;;3.05;100.00;97645.63;5231785;28;20216;-79
2021/01/14 02:07:05;;;;;;;8.73;7.90;;;2.30;99.90;;;3.05;100.00;97636.41;5248539;28;20208;-79
2021/01/14 02:09:40;;;;;;;8.77;8.07;;;2.20;99.90;;;3.09;100.00;97637.53;5229491;28;20583;-79
2021/01/14 02:12:13;;;;;;;8.87;8.07;;;2.20;99.90;;;3.07;100.00;97632.38;5229302;28;20201;-79
2021/01/14 02:14:47;;;;;;;8.57;7.77;;;2.20;99.90;;;3.08;100.00;97631.59;5229479;28;20207;-79
2021/01/14 02:17:19;;;;;;;8.30;7.50;;;2.30;99.90;;;3.07;100.00;97632.38;5242252;28;20201;-77
2021/01/14 02:19:52;;;;;;;8.87;8.03;;;2.30;99.90;;;3.08;100.00;97641.69;5249365;28;20198;-79
2021/01/14 02:22:31;;;;;;;8.30;7.50;;;2.30;99.90;;;3.08;100.00;97634.13;5233792;28;20593;-79
2021/01/14 02:25:12;;;;;;;9.03;8.13;;;2.30;99.90;;;3.07;100.00;97637.41;5228105;28;20211;-79
2021/01/14 02:27:47;;;;;;;7.93;7.23;;;2.30;99.90;;;3.08;100.00;97636.66;5230339;28;20196;-78
2021/01/14 02:30:19;;;;;;;7.83;6.90;;;2.30;99.90;;;3.11;100.00;97631.84;5228594;28;20219;-78
2021/01/14 02:32:51;;;;;;;8.53;7.63;;;2.20;99.90;;;3.13;100.00;97639.56;5238467;28;20276;-79
2021/01/14 02:35:23;;;;;;;8.07;7.37;;;2.30;99.90;;;3.12;100.00;97647.91;5230708;28;20698;-79
2021/01/14 02:37:55;;;;;;;8.33;7.73;;;2.30;99.90;;;3.11;100.00;97648.66;5236862;28;20193;-79
2021/01/14 02:40:28;;;;;;;9.20;8.10;;;2.30;99.90;;;3.11;100.00;97657.09;5236724;28;20190;-79
2021/01/14 02:43:01;;;;;;;7.80;7.10;;;2.30;99.90;;;3.10;100.00;97645.25;5239939;28;20217;-78
2021/01/14 02:45:34;;;;;;;7.73;7.10;;;2.30;99.90;;;3.10;100.00;97655.34;5247489;28;20216;-79
2021/01/14 02:48:11;;;;;;;8.37;7.57;;;2.30;99.90;;;3.14;100.00;97659.88;5231219;28;20199;-78
2021/01/14 02:50:43;;;;;;;8.70;7.80;;;2.30;99.90;;;3.13;100.00;97663.16;5228584;28;20205;-77
2021/01/14 02:53:16;;;;;;;9.23;8.43;;;2.30;99.90;;;3.17;100.00;97666.81;5228567;28;20244;-79
2021/01/14 02:55:50;;;;;;;9.50;8.10;;;2.30;99.90;;;3.15;100.00;97663.31;5228932;28;20215;-78
2021/01/14 02:58:23;;;;;;;7.50;6.80;;;2.30;99.90;;;3.16;100.00;97671.00;5228897;28;20197;-78
2021/01/14 03:00:56;;;;;;;8.37;7.67;;;2.30;99.90;;;3.15;100.00;97674.28;5228662;28;20193;-78
2021/01/14 03:03:28;;;;;;;9.33;8.23;;;2.30;99.90;;;3.15;100.00;97678.47;5228545;28;20221;-79
2021/01/14 03:06:00;;;;;;;9.03;8.23;;;2.30;99.90;;;3.12;100.00;97679.09;5233727;28;20198;-79
2021/01/14 03:08:32;;;;;;;8.80;7.90;;;2.30;99.90;;;3.14;100.00;97680.06;5232378;28;20221;-81
2021/01/14 03:11:04;;;;;;;9.63;8.13;;;2.30;99.90;;;3.13;100.00;97659.75;5232058;28;20208;-79
2021/01/14 03:13:37;;;;;;;8.77;7.97;;;2.30;99.90;;;3.13;100.00;97655.59;5236764;28;20220;-79
2021/01/14 03:16:09;;;;;;;9.63;8.73;;;2.30;99.90;;;3.22;100.00;97652.06;5250641;28;20201;-79
2021/01/14 03:18:44;;;;;;;9.57;8.47;;;2.20;99.90;;;3.21;100.00;97662.94;5232373;28;20281;-80
2021/01/14 03:21:20;;;;;;;9.80;8.87;;;2.20;99.90;;;3.16;100.00;97663.41;5248713;28;20190;-79
2021/01/14 03:23:53;;;;;;;9.70;8.70;;;2.20;99.90;;;3.10;99.70;97665.44;5252720;28;20243;-79
2021/01/14 03:26:26;;;;;;;9.47;8.57;;;2.20;99.90;;;3.15;98.57;97675.94;5251713;28;20227;-80
2021/01/14 03:28:59;;;;;;;8.80;7.70;;;2.20;99.90;;;3.09;98.49;97676.31;5251182;28;20712;-79
2021/01/14 03:31:31;;;;;;;8.73;7.53;;;2.30;99.90;;;3.02;98.80;97680.72;5234204;28;20204;-80
2021/01/14 03:34:03;;;;;;;8.53;7.83;;;2.30;99.90;;;3.00;98.85;97674.66;5231933;28;20221;-79
2021/01/14 03:36:35;;;;;;;9.17;7.83;;;2.20;99.90;;;3.01;98.69;97674.78;5231943;28;20589;-80
2021/01/14 03:39:22;;;;;;;8.50;7.70;;;2.20;99.90;;;2.97;99.33;97677.78;5231189;28;20665;-77
2021/01/14 03:41:57;;;;;;;8.77;7.83;;;2.20;99.90;;;2.94;98.50;97677.53;5236132;28;20202;-81
2021/01/14 03:44:30;;;;;;;8.17;7.37;;;2.20;99.90;;;3.00;99.30;97667.06;5237655;28;20673;-79
2021/01/14 03:47:02;;;;;;;9.47;8.27;;;2.20;99.90;;;2.98;99.47;97669.50;5252578;28;20215;-79
2021/01/14 03:49:34;;;;;;;8.20;7.40;;;2.20;99.90;;;2.93;99.22;97666.56;5247164;28;20217;-79
2021/01/14 03:52:08;;;;;;;9.40;8.50;;;2.20;99.90;;;2.92;99.18;97684.13;5230564;28;20219;-79
2021/01/14 03:54:40;;;;;;;8.60;7.73;;;2.20;99.90;;;2.89;99.19;97679.72;5230623;28;20581;-79
2021/01/14 03:57:13;;;;;;;12.20;7.97;;;2.20;99.90;;;2.83;99.17;97680.81;5231276;28;20674;-78
2021/01/14 03:59:46;;;;;;;9.83;8.53;;;2.10;99.90;;;2.85;99.28;97684.34;5231312;28;20193;-79
2021/01/14 04:02:18;;;;;;;9.77;8.63;;;2.10;99.90;;;2.87;99.76;97685.38;5230509;28;20210;-79
2021/01/14 04:04:50;;;;;;;10.10;8.93;;;2.10;99.90;;;2.96;98.62;97686.13;5236533;28;20207;-79
2021/01/14 04:07:22;;;;;;;10.20;9.20;;;2.10;99.90;;;2.88;98.66;97689.66;5251258;28;20688;-78
2021/01/14 04:09:54;;;;;;;10.60;9.50;;;2.20;99.90;;;2.83;99.63;97693.44;5235365;28;20217;-80
2021/01/14 04:12:29;;;;;;;11.03;9.97;;;2.10;99.90;;;2.88;99.35;97690.53;5230220;28;20225;-81
2021/01/14 04:15:03;;;;;;;10.03;9.00;;;2.10;99.90;;;2.84;99.40;97701.16;5248757;28;20666;-79
2021/01/14 04:17:35;;;;;;;12.63;10.60;;;2.10;99.90;;;2.94;99.16;97697.75;5249048;28;20202;-78
2021/01/14 04:20:09;;;;;;;10.23;8.80;;;2.10;99.90;;;2.99;98.63;97710.75;5242253;28;20185;-79
2021/01/14 04:22:41;;;;;;;9.33;8.30;;;2.20;99.90;;;2.93;97.71;97706.06;5249133;28;20220;-79
2021/01/14 04:25:13;;;;;;;9.63;8.00;;;2.10;99.90;;;3.10;97.43;97712.53;5250941;28;20704;-78
2021/01/14 04:27:46;;;;;;;9.10;8.17;;;2.00;99.90;;;3.04;97.26;97722.13;5248947;28;20233;-79
2021/01/14 04:30:20;;;;;;;8.83;8.00;;;2.10;99.90;;;2.93;97.75;97711.13;5236323;28;20321;-78
2021/01/14 04:32:58;;;;;;;8.97;8.17;;;2.10;99.90;;;2.88;98.07;97725.00;5230158;28;20227;-78
2021/01/14 04:35:33;;;;;;;8.50;7.70;;;2.10;99.90;;;2.80;98.17;97728.50;5230800;28;20197;-79
2021/01/14 04:38:05;;;;;;;8.20;7.40;;;2.00;99.90;;;2.79;98.33;97737.72;5234697;28;20195;-78
2021/01/14 04:40:37;;;;;;;10.10;8.53;;;2.00;99.90;;;2.75;98.24;97735.72;5250683;28;20738;-78
2021/01/14 04:43:12;;;;;;;8.73;7.87;;;2.00;99.90;;;2.80;97.69;97743.66;5233050;28;20611;-78
2021/01/14 04:45:47;;;;;;;8.33;7.63;;;1.90;99.90;;;2.91;97.81;97732.81;5232272;28;20238;-78
2021/01/14 04:48:21;;;;;;;8.63;7.87;;;1.90;99.90;;;2.93;96.98;97741.41;5249367;28;20199;-78
2021/01/14 04:50:55;;;;;;;8.90;8.00;;;2.00;99.90;;;2.70;96.75;97747.03;5235408;28;20271;-79
2021/01/14 04:53:29;;;;;;;8.83;8.03;;;2.00;99.90;;;2.66;97.88;97752.56;5229800;28;20229;-80
2021/01/14 04:56:04;;;;;;;9.20;8.30;;;2.00;99.90;;;2.66;97.31;97761.03;5246335;28;20575;-78
2021/01/14 04:58:38;;;;;;;9.00;8.10;;;1.90;99.90;;;2.64;98.42;97757.50;5248681;28;20203;-79
2021/01/14 05:01:18;;;;;;;11.13;9.53;;;1.90;99.90;;;2.68;98.83;97762.03;5248640;28;20220;-79
2021/01/14 05:03:52;;;;;;;9.77;8.97;;;2.00;99.90;;;2.66;99.13;97758.53;5250430;28;20219;-78
2021/01/14 05:06:25;;;;;;;9.43;8.43;;;2.00;99.90;;;2.66;99.20;97763.56;5247536;28;20196;-79
2021/01/14 05:09:04;;;;;;;10.17;9.27;;;2.00;99.90;;;2.65;98.73;97763.41;5250428;28;20221;-79
2021/01/14 05:11:43;;;;;;;9.23;8.40;;;1.90;99.90;;;2.68;99.63;97766.19;5239911;28;20685;-78
2021/01/14 05:14:18;;;;;;;9.50;8.50;;;2.00;99.90;;;2.68;99.20;97766.19;5230033;28;20227;-80
2021/01/14 05:16:52;;;;;;;10.20;9.20;;;2.00;99.90;;;2.73;99.55;97761.56;5228834;28;20683;-78
2021/01/14 05:19:24;;;;;;;10.53;9.40;;;2.00;99.90;;;2.77;99.53;97759.41;5245230;28;20704;-78
2021/01/14 05:22:00;;;;;;;9.53;8.63;;;2.00;99.90;;;2.74;99.61;97753.22;5249870;28;20203;-80
2021/01/14 05:24:32;;;;;;;9.93;8.80;;;1.90;99.90;;;2.70;100.00;97758.00;5249145;28;20204;-78
2021/01/14 05:27:22;;;;;;;10.97;9.87;;;2.00;99.90;;;2.64;100.00;97767.59;5249131;28;20750;-78
2021/01/14 05:30:03;;;;;;;10.47;9.47;;;1.90;99.90;;;2.68;100.00;97763.69;5231734;28;20224;-78
2021/01/14 05:32:38;;;;;;;10.97;9.17;;;1.90;99.90;;;2.71;99.61;97774.91;5229175;28;20233;-78
2021/01/14 05:35:12;;;;;;;10.37;9.37;;;1.90;99.90;;;2.70;99.49;97772.28;5229214;28;20196;-78
2021/01/14 05:37:45;;;;;;;10.50;9.40;;;1.90;99.90;;;2.72;100.00;97783.38;5229330;28;20562;-77
2021/01/14 05:40:24;;;;;;;9.80;8.80;;;1.90;99.90;;;2.65;100.00;97797.09;5231037;28;20193;-79
2021/01/14 05:43:05;;;;;;;10.97;9.30;;;1.90;99.90;;;2.67;99.63;97792.19;5228143;28;20261;-78
2021/01/14 05:45:37;;;;;;;10.10;9.10;;;1.80;99.90;;;2.59;99.89;97789.00;5231539;28;20573;-78
2021/01/14 05:48:14;;;;;;;10.50;9.30;;;1.80;99.90;;;2.68;99.32;97787.25;5248999;28;20211;-79
2021/01/14 05:50:47;;;;;;;10.43;9.33;;;1.70;99.90;;;2.65;98.88;97799.63;5245394;28;20220;-79
2021/01/14 05:53:20;;;;;;;11.17;10.00;;;1.80;99.90;;;2.65;98.84;97799.63;5228794;28;20228;-79
2021/01/14 05:55:52;;;;;;;12.03;10.70;;;1.80;99.90;;;2.62;98.37;97794.31;5238357;28;20280;-78
2021/01/14 05:58:27;;;;;;;11.67;10.20;;;1.80;99.90;;;2.61;98.77;97794.19;5228335;28;20205;-78
2021/01/14 06:01:04;;;;;;;11.87;10.67;;;1.80;99.90;;;2.54;98.36;97782.66;5244291;28;20198;-78
2021/01/14 06:03:36;;;;;;;12.00;10.67;;;1.70;99.90;;;2.53;98.67;97773.34;5248635;28;20226;-79
2021/01/14 06:06:15;;;;;;;13.13;11.40;;;1.80;99.90;;;2.68;98.66;97774.66;5229351;28;20202;-79
2021/01/14 06:08:48;;;;;;;11.03;9.93;;;1.80;99.90;;;2.66;98.82;97780.31;5228257;28;20205;-79
2021/01/14 06:11:22;;;;;;;11.80;10.20;;;1.80;99.90;;;2.59;98.72;97781.44;5228644;28;20195;-78
2021/01/14 06:13:54;;;;;;;12.73;11.43;;;1.70;99.90;;;2.57;98.36;97790.50;5230033;28;20613;-77
2021/01/14 06:16:26;;;;;;;12.17;10.97;;;1.70;99.90;;;2.59;98.71;97810.84;5249052;28;20292;-78
2021/01/14 06:19:08;;;;;;;11.70;10.60;;;1.70;99.90;;;2.56;98.78;97823.19;5244769;28;20195;-78
2021/01/14 06:21:47;;;;;;;12.30;11.17;;;1.70;99.90;;;2.57;98.33;97815.72;5239402;28;20266;-80
2021/01/14 06:24:24;;;;;;;11.37;10.20;;;1.80;99.90;;;2.64;98.58;97812.13;5243688;28;20298;-80
2021/01/14 06:26:58;;;;;;;11.43;10.30;;;1.80;99.90;;;2.62;97.95;97796.84;5237162;28;20219;-79
2021/01/14 06:29:32;;;;;;;11.20;9.93;;;1.70;99.90;;;2.61;98.36;97802.66;5227313;28;20572;-78
2021/01/14 06:32:09;;;;;;;12.53;11.33;;;1.70;99.90;;;2.58;97.02;97799.84;5228727;28;20268;-80
2021/01/14 06:34:44;;;;;;;11.90;10.70;;;1.70;99.90;;;2.56;97.10;97808.94;5232502;28;20204;-79
2021/01/14 06:37:19;;;;;;;12.20;10.90;;;1.70;99.90;;;2.56;96.90;97816.50;5234059;28;20207;-80
2021/01/14 06:39:53;;;;;;;12.10;10.90;;;1.70;99.90;;;2.42;97.17;97819.44;5233524;28;20198;-80
2021/01/14 06:42:27;;;;;;;12.00;10.90;;;1.70;99.90;;;2.43;97.81;97829.69;5237293;28;20223;-78
2021/01/14 06:45:00;;;;;;;12.53;11.23;;;1.70;99.90;;;2.40;97.58;97833.56;5232642;28;20216;-82
2021/01/14 06:47:36;;;;;;;11.73;10.37;;;1.60;99.90;;;2.39;98.35;97840.25;5249582;28;20197;-81
2021/01/14 06:50:22;;;;;;;12.30;11.10;;;1.60;99.90;;;2.40;98.56;97842.00;5235860;28;20216;-79
2021/01/14 06:53:02;;;;;;;13.13;10.87;;;1.60;99.90;;;2.47;97.88;97843.44;5238876;28;20227;-80
2021/01/14 06:55:36;;;;;;;11.50;10.47;;;1.60;99.90;;;2.56;97.14;97838.31;5241342;28;20204;-79
2021/01/14 06:58:10;;;;;;;12.17;10.60;;;1.60;99.90;;;2.48;97.29;97835.13;5232197;28;20192;-80
2021/01/14 07:00:45;;;;;;;11.90;10.90;;;1.60;99.90;;;2.50;97.84;97843.72;5248089;28;20744;-80
2021/01/14 07:03:27;;;;;;;12.10;10.90;;;1.60;99.90;;;2.50;97.32;97847.88;5243212;28;20213;-78
2021/01/14 07:06:07;;;;;;;12.13;10.93;;;1.60;99.90;;;2.44;97.54;97846.59;5234101;28;20210;-79
2021/01/14 07:08:41;;;;;;;12.37;11.00;;;1.60;99.90;;;2.38;97.75;97861.19;5235265;28;20215;-79
2021/01/14 07:11:15;;;;;;;13.13;11.83;;;1.60;99.90;;;2.37;96.89;97864.44;5236462;28;20209;-81
2021/01/14 07:13:51;;;;;;;13.20;11.77;;;1.60;99.90;;;2.33;97.50;97864.03;5238109;28;20707;-79
2021/01/14 07:16:25;;;;;;;14.73;13.17;;;1.60;99.90;;;2.35;97.95;97867.59;5238757;28;20646;-79
2021/01/14 07:18:57;;;;;;;13.80;12.50;;;1.60;99.90;;;2.40;97.99;97867.22;5230644;28;20207;-81
2021/01/14 07:21:34;;;;;;;13.37;11.97;;;1.60;99.90;;;2.44;97.98;97875.97;5229965;28;20216;-80
2021/01/14 07:24:18;;;;;;;12.67;11.43;;;1.60;99.90;;;2.45;97.80;97877.72;5229459;28;20650;-78
2021/01/14 07:26:57;;;;;;;13.57;12.17;;;1.60;99.90;;;2.47;98.06;97878.75;5239799;28;20197;-80
2021/01/14 07:29:30;;;;;;;13.60;12.20;;;1.70;99.90;;;2.45;97.67;97883.66;5239487;28;20208;-79
2021/01/14 07:32:02;;;;;;;13.50;12.00;;;1.70;99.90;;;2.44;97.99;97883.53;5253351;28;20295;-80
2021/01/14 07:34:40;;;;;;;14.67;13.17;;;1.70;99.90;;;2.42;98.69;97895.13;5244899;28;20287;-79
2021/01/14 07:37:14;;;;;;;14.87;13.47;;;1.60;99.90;;;2.42;98.73;97900.16;5242328;28;20203;-82
2021/01/14 07:39:52;;;;;;;13.03;11.73;;;1.60;99.90;;;2.50;97.77;97908.41;5235055;28;20197;-80
2021/01/14 07:42:26;;;;;;;11.87;10.73;;;1.50;99.90;;;2.44;97.88;97916.31;5243005;28;20277;-80
2021/01/14 07:45:00;;;;;;;13.73;11.50;;;1.60;99.90;;;2.41;97.76;97918.56;5235983;28;20278;-80
2021/01/14 07:47:34;;;;;;;13.13;11.93;;;1.60;99.90;;;2.39;98.42;97920.94;5243659;28;20203;-79
2021/01/14 07:50:19;;;;;;;12.70;11.50;;;1.60;99.90;;;2.36;97.91;97924.84;5239136;28;20217;-81
2021/01/14 07:52:54;;;;;;;12.53;11.33;;;1.50;99.90;;;2.47;98.27;97929.22;5230688;28;20219;-80
2021/01/14 07:55:29;;;;;;;12.77;11.47;;;1.60;99.90;;;2.44;97.41;97924.78;5243686;28;20205;-79
2021/01/14 07:58:05;;;;;;;11.50;10.47;;;1.60;99.90;;;2.44;99.03;97924.78;5239547;28;20297;-79
2021/01/14 08:00:37;;;;;;;12.27;10.70;;;1.60;99.90;;;2.42;97.90;97925.38;5240734;28;20270;-79
2021/01/14 08:03:10;;;;;;;11.83;10.50;;;1.60;99.90;;;2.43;97.47;97917.06;5247959;28;20248;-79
2021/01/14 08:05:56;;;;;;;11.03;9.93;;;1.60;99.90;;;2.53;98.58;97932.28;5249184;28;20294;-79
2021/01/14 08:08:31;;;;;;;11.77;10.77;;;1.60;99.90;;;2.51;98.01;97931.22;5246562;28;20209;-80
2021/01/14 08:11:13;;;;;;;11.63;10.43;;;1.60;99.90;;;2.47;97.48;97939.28;5240156;28;20220;-78
2021/01/14 08:14:17;;;;;;;13.07;11.87;;;1.60;99.90;;;2.45;97.88;97925.66;5237750;28;20212;-79
2021/01/14 08:16:51;;;;;;;16.80;12.07;;;1.50;99.90;;;2.41;97.99;97934.59;5235476;28;20200;-78
2021/01/14 08:19:32;;;;;;;14.60;13.00;;;1.50;99.90;;;2.51;96.65;97941.31;5240262;28;20333;-79
2021/01/14 08:22:10;;;;;;;14.80;13.20;;;1.60;99.90;;;2.50;97.49;97944.63;5237820;28;20462;-79
2021/01/14 08:24:52;;;;;;;14.50;12.43;;;1.60;99.90;;;2.46;97.45;97957.69;5234429;28;20236;-79
2021/01/14 08:27:31;;;;;;;14.10;12.70;;;1.60;99.90;;;2.44;97.81;97951.63;5234810;28;20592;-79
2021/01/14 08:30:06;;;;;;;13.87;12.50;;;1.60;99.90;;;2.46;97.49;97945.97;5241241;28;20213;-80
2021/01/14 08:32:41;;;;;;;14.07;12.77;;;1.60;99.90;;;2.44;98.05;97954.16;5246749;28;20590;-79
2021/01/14 08:35:36;;;;;;;16.80;13.00;;;1.60;99.90;;;2.51;97.95;97953.06;5236145;28;20284;-80
2021/01/14 08:38:14;;;;;;;15.40;12.77;;;1.60;99.90;;;2.50;96.80;97958.88;5231883;28;20181;-81
2021/01/14 08:40:47;;;;;;;16.50;13.93;;;1.60;99.90;;;2.51;97.84;97953.06;5230052;28;20205;-82
2021/01/14 08:43:21;;;;;;;16.10;13.57;;;1.60;99.90;;;2.52;97.34;97957.34;5236930;28;20227;-82
2021/01/14 08:45:54;;;;;;;14.37;12.97;;;1.60;99.90;;;2.55;97.87;97962.66;5234387;28;20636;-81
2021/01/14 08:48:28;;;;;;;13.50;12.20;;;1.60;99.90;;;2.60;97.93;97962.31;5234981;28;20201;-81
2021/01/14 08:51:04;;;;;;;14.37;12.90;;;1.60;99.90;;;2.59;98.08;97955.50;5232578;28;20601;-81
2021/01/14 08:53:38;;;;;;;14.70;13.20;;;1.60;99.90;;;2.64;97.51;97959.34;5226282;28;20226;-80
2021/01/14 08:56:17;;;;;;;14.00;12.30;;;1.60;99.90;;;2.58;96.61;97966.38;5232759;28;20251;-79
2021/01/14 08:58:50;;;;;;;14.70;13.20;;;1.60;99.90;;;2.58;97.56;97975.56;5243203;28;21351;-80
2021/01/14 09:01:24;;;;;;;16.40;14.87;;;1.70;99.90;;;2.62;96.87;97986.06;5225660;28;20208;-80
2021/01/14 09:03:57;;;;;;;16.07;14.23;;;1.70;99.90;;;2.65;97.39;97990.50;5230033;28;20239;-81
2021/01/14 09:06:32;;;;;;;18.53;14.80;;;1.70;99.90;;;2.64;96.86;97979.53;5234418;28;20283;-80
2021/01/14 09:09:10;;;;;;;15.63;13.97;;;1.80;99.90;;;2.62;97.18;97975.09;5233172;28;20333;-80
2021/01/14 09:11:44;;;;;;;16.20;14.23;;;1.70;99.90;;;2.74;97.26;97981.22;5225758;28;20204;-79
2021/01/14 09:14:18;;;;;;;14.33;12.93;;;1.80;99.90;;;2.76;97.51;97993.97;5226056;28;20231;-80
2021/01/14 09:16:51;;;;;;;16.93;14.20;;;1.80;99.90;;;2.72;97.26;98002.94;5227273;28;20197;-81
2021/01/14 09:19:25;;;;;;;16.77;14.50;;;1.80;99.90;;;2.62;95.88;98006.25;5233528;28;20759;-79
2021/01/14 09:21:57;;;;;;;17.77;15.77;;;1.70;99.90;;;2.68;96.55;98014.34;5240128;28;20200;-79
2021/01/14 09:24:29;;;;;;;15.80;13.93;;;1.70;99.90;;;2.69;96.00;98018.69;5226834;28;20724;-80
2021/01/14 09:27:05;;;;;;;14.80;13.40;;;1.80;99.90;;;2.72;96.70;98007.97;5226248;28;20204;-80
2021/01/14 09:29:37;;;;;;;16.30;14.60;;;1.80;99.90;;;2.71;96.76;98009.59;5243385;28;20220;-81
2021/01/14 09:32:12;;;;;;;15.03;13.43;;;1.90;99.90;;;2.72;96.42;98013.03;5229540;28;20197;-80
2021/01/14 09:34:44;;;;;;;15.40;13.80;;;1.80;99.90;;;2.74;95.57;98023.22;5235180;28;20196;-80
2021/01/14 09:37:17;;;;;;;15.47;13.53;;;1.80;99.90;;;2.80;96.62;98032.22;5228997;28;20199;-82
2021/01/14 09:39:49;;;;;;;15.20;13.70;;;1.80;99.90;;;2.89;96.63;98030.56;5231306;28;20585;-80
2021/01/14 09:42:23;;;;;;;15.77;13.00;;;1.90;99.90;;;2.88;96.48;98033.81;5246534;28;20297;-80
2021/01/14 09:44:57;;;;;;;17.10;12.47;;;1.90;99.90;;;2.91;96.95;98035.72;5247185;28;20186;-79
2021/01/14 09:47:30;;;;;;;13.27;11.87;;;1.90;99.90;;;2.92;96.52;98035.00;5246576;28;20201;-79
2021/01/14 09:50:02;;;;;;;14.70;12.20;;;1.90;99.90;;;3.00;96.97;98028.94;5230861;28;20221;-79
2021/01/14 09:52:34;;;;;;;14.80;12.40;;;1.90;99.90;;;3.03;96.29;98046.00;5225011;28;20673;-79
2021/01/14 09:55:11;;;;;;;13.53;12.17;;;1.90;99.90;;;3.03;95.52;98056.13;5242305;28;20189;-80
2021/01/14 09:57:49;;;;;;;13.67;11.97;;;1.90;99.90;;;3.00;96.12;98056.72;5246458;28;20201;-80
2021/01/14 10:00:26;;;;;;;14.53;12.67;;;2.00;99.90;;;3.01;95.34;98063.56;5240567;28;20189;-79
2021/01/14 10:03:06;;;;;;;15.37;12.83;;;2.00;99.90;;;2.89;93.72;98072.53;5237521;28;20509;-79
2021/01/14 10:05:45;;;;;;;15.73;12.67;;;1.90;99.90;;;2.84;92.64;98078.84;5238636;28;20288;-79
2021/01/14 10:08:22;;;;;;;13.97;12.60;;;1.90;99.90;;;2.90;93.63;98077.75;5226105;28;20605;-79
2021/01/14 10:10:54;;;;;;;14.63;13.27;;;2.00;99.90;;;2.98;94.53;98088.53;5236635;28;20315;-79
2021/01/14 10:13:27;;;;;;;16.30;13.30;;;2.00;99.90;;;2.97;93.74;98086.75;5229752;28;20312;-79
2021/01/14 10:16:10;;;;;;;17.03;12.50;;;2.00;99.90;;;3.12;95.49;98078.03;5225325;28;20210;-80
2021/01/14 10:18:41;;;;;;;12.60;11.40;;;2.00;99.90;;;3.16;95.23;98075.03;5229527;28;20190;-80
2021/01/14 10:21:14;;;;;;;13.07;11.67;;;2.00;99.90;;;3.17;94.20;98070.84;5244684;28;20215;-77
2021/01/14 10:23:46;;;;;;;12.13;11.00;;;2.00;99.90;;;3.18;94.87;98082.75;5243079;28;20218;-78
2021/01/14 10:26:26;;;;;;;12.33;11.20;;;2.10;99.90;;;3.05;92.82;98069.78;5233662;28;20287;-79
2021/01/14 10:29:05;;;;;;;12.93;11.70;;;2.00;99.90;;;3.04;93.37;98068.00;5235323;28;20283;-79
2021/01/14 10:31:43;;;;;;;13.57;11.73;;;2.00;99.90;;;2.99;92.87;98075.16;5232970;28;20225;-79
2021/01/14 10:34:16;;;;;;;12.53;11.03;;;2.00;99.90;;;3.06;93.74;98074.97;5231609;28;20251;-78
2021/01/14 10:36:50;;;;;;;14.27;11.77;;;2.00;99.90;;;3.06;93.19;98077.50;5229817;28;20581;-78
2021/01/14 10:39:22;;;;;;;12.30;11.17;;;2.10;99.90;;;3.14;94.81;98074.00;5239020;28;20201;-77
2021/01/14 10:41:54;;;;;;;14.83;13.37;;;2.10;99.90;;;3.17;94.86;98071.72;5227567;28;20205;-78
2021/01/14 10:44:27;;;;;;;14.07;12.33;;;2.10;99.90;;;3.22;94.34;98073.78;5242876;28;20226;-77
2021/01/14 10:46:59;;;;;;;16.90;14.73;;;2.10;99.90;;;3.16;94.55;98071.63;5237657;28;20195;-78
2021/01/14 10:49:31;;;;;;;14.10;12.70;;;2.10;99.90;;;3.24;95.18;98079.88;5230991;28;20504;-79
2021/01/14 10:52:05;;;;;;;13.60;12.17;;;2.20;99.90;;;3.12;92.67;98083.09;5234354;28;20200;-78
2021/01/14 10:54:37;;;;;;;14.13;11.97;;;2.00;99.90;;;3.11;92.92;98096.44;5244919;28;20208;-80
2021/01/14 10:57:09;;;;;;;12.50;11.27;;;2.10;99.90;;;3.04;92.47;98094.13;5229203;28;20208;-78